Time;durP1;ratioP1;P1;durP2;ratioP2;P2;SDS_P1;SDS_P2;PMS_P1;PMS_P2;Temp;Humidity;BMP_temperature;BMP_pressure;BME280_temperature;BME280_humidity;BME280_pressure;Samples;Min_cycle;Max_cycle;Signal;HPM_P1;HPM_P2
2021/11/12 00:04:20;;;;;;;17.23;4.63;;;5.00;99.90;;;;;;5116365;28;20060;-67
2021/11/12 00:12:29;;;;;;;9.57;3.63;;;5.00;99.90;;;;;;5116651;28;20023;-67
2021/11/12 00:14:56;;;;;;;10.30;3.63;;;5.00;99.90;;;;;;5116636;28;20020;-67
2021/11/12 00:17:29;;;;;;;12.07;3.97;;;5.10;99.90;;;;;;5115344;28;20532;-67
2021/11/12 00:19:56;;;;;;;18.35;4.95;;;5.20;99.90;;;;;;5116169;28;20031;-67
2021/11/12 00:22:23;;;;;;;24.25;5.43;;;5.30;99.90;;;;;;5115880;28;20020;-67
2021/11/12 00:24:53;;;;;;;35.17;5.50;;;5.50;99.90;;;;;;5115764;28;20398;-67
2021/11/12 00:27:20;;;;;;;17.52;5.55;;;5.60;99.90;;;;;;5115321;28;20038;-67
2021/11/12 00:32:43;;;;;;;18.60;5.47;;;5.90;99.90;;;;;;5116017;28;20027;-67
2021/11/12 00:35:19;;;;;;;19.10;4.88;;;6.10;99.90;;;;;;5115989;28;20046;-67
2021/11/12 00:40:20;;;;;;;33.97;6.68;;;6.40;99.90;;;;;;5115770;28;20386;-67
2021/11/12 00:43:33;;;;;;;36.17;6.03;;;6.50;99.90;;;;;;5097264;28;20026;-67
2021/11/12 00:45:42;;;;;;;25.27;5.97;;;6.50;99.90;;;;;;5103811;28;20175;-67
2021/11/12 00:48:23;;;;;;;25.17;5.90;;;6.60;99.90;;;;;;5115174;28;20024;-67
2021/11/12 00:55:42;;;;;;;24.38;6.80;;;6.70;99.90;;;;;;5115505;28;20034;-67
2021/11/12 00:58:13;;;;;;;25.48;7.18;;;6.70;99.90;;;;;;5115078;28;20023;-67
2021/11/12 01:00:40;;;;;;;25.80;6.05;;;6.80;99.90;;;;;;5115305;28;20027;-67
2021/11/12 01:03:06;;;;;;;19.75;5.50;;;6.80;99.90;;;;;;5115064;28;20072;-67
2021/11/12 01:05:32;;;;;;;17.13;5.07;;;6.80;99.90;;;;;;5114491;28;20024;-67
2021/11/12 01:07:59;;;;;;;18.67;5.93;;;6.80;99.90;;;;;;5115111;28;20472;-67
2021/11/12 01:10:26;;;;;;;31.25;5.45;;;6.80;99.90;;;;;;5114828;28;20015;-67
2021/11/12 01:12:52;;;;;;;24.25;5.72;;;6.80;99.90;;;;;;5115144;28;20031;-67
2021/11/12 01:15:20;;;;;;;36.15;8.80;;;6.80;99.90;;;;;;5115077;28;20428;-67
2021/11/12 01:17:46;;;;;;;36.15;7.45;;;6.80;99.90;;;;;;5114898;28;20394;-67
2021/11/12 01:20:16;;;;;;;31.80;6.55;;;6.80;99.90;;;;;;5113899;28;20023;-67
2021/11/12 01:22:43;;;;;;;25.88;6.43;;;6.80;99.90;;;;;;5114625;28;20055;-67
2021/11/12 01:25:11;;;;;;;28.92;6.85;;;6.80;99.90;;;;;;5114606;28;20031;-67
2021/11/12 01:27:38;;;;;;;28.45;6.88;;;6.80;99.90;;;;;;5114085;28;20023;-67
2021/11/12 01:30:05;;;;;;;26.17;7.50;;;6.90;99.90;;;;;;5114450;28;20057;-67
2021/11/12 01:32:31;;;;;;;34.90;10.13;;;6.90;99.90;;;;;;5114994;28;20024;-67
2021/11/12 01:35:00;;;;;;;41.35;11.65;;;6.90;99.90;;;;;;5114447;28;20023;-67
2021/11/12 01:37:28;;;;;;;52.72;12.32;;;7.00;99.90;;;;;;5113974;28;20106;-67
2021/11/12 01:39:59;;;;;;;57.17;13.20;;;7.10;99.90;;;;;;5114265;28;20019;-67
2021/11/12 01:42:28;;;;;;;51.03;13.88;;;7.10;99.90;;;;;;5114306;28;20022;-67
2021/11/12 01:45:01;;;;;;;60.08;17.70;;;7.20;99.90;;;;;;5114539;28;20016;-67
2021/11/12 01:47:56;;;;;;;65.10;16.48;;;7.30;99.90;;;;;;5113846;28;20019;-67
2021/11/12 01:50:24;;;;;;;54.22;14.10;;;7.30;99.90;;;;;;5114382;28;20033;-67
2021/11/12 01:52:51;;;;;;;62.85;17.92;;;7.30;99.90;;;;;;5114123;28;20498;-68
2021/11/12 01:55:43;;;;;;;66.60;16.48;;;7.40;99.90;;;;;;5114359;28;20115;-67
2021/11/12 01:58:26;;;;;;;60.58;16.98;;;7.30;99.90;;;;;;5112639;28;20036;-67
2021/11/12 02:00:51;;;;;;;80.93;20.27;;;7.40;99.90;;;;;;5113960;28;20130;-67
2021/11/12 02:03:18;;;;;;;73.93;20.55;;;7.40;99.90;;;;;;5114210;28;20099;-67
2021/11/12 02:05:44;;;;;;;105.88;23.25;;;7.50;99.90;;;;;;5113913;28;20027;-67
2021/11/12 02:08:10;;;;;;;111.10;24.08;;;7.50;99.90;;;;;;5113510;28;20043;-67
2021/11/12 02:10:36;;;;;;;93.50;24.05;;;7.60;99.90;;;;;;5113692;28;20063;-67
2021/11/12 02:13:11;;;;;;;101.45;24.40;;;7.60;99.90;;;;;;5113847;28;20032;-67
2021/11/12 02:15:39;;;;;;;100.32;25.55;;;7.60;99.90;;;;;;5113982;28;20043;-68
2021/11/12 02:18:13;;;;;;;104.47;24.65;;;7.70;99.90;;;;;;5113666;28;20102;-67
2021/11/12 02:20:49;;;;;;;90.72;26.60;;;7.70;99.90;;;;;;5113345;28;20027;-68
2021/11/12 02:23:16;;;;;;;128.02;30.63;;;7.80;99.90;;;;;;5113713;28;20525;-68
2021/11/12 02:25:44;;;;;;;100.80;27.20;;;7.80;99.90;;;;;;5113685;28;20019;-67
2021/11/12 02:28:13;;;;;;;122.90;28.67;;;7.80;99.90;;;;;;5095700;28;20441;-67
2021/11/12 02:30:43;;;;;;;110.50;29.02;;;7.80;99.90;;;;;;5113642;28;20035;-67
2021/11/12 02:33:16;;;;;;;148.80;33.95;;;7.80;99.90;;;;;;5113110;28;20031;-67
2021/11/12 02:36:09;;;;;;;148.30;34.85;;;7.90;99.90;;;;;;5114113;28;20027;-67
2021/11/12 02:38:39;;;;;;;164.07;36.55;;;7.90;99.90;;;;;;5113606;28;20047;-67
2021/11/12 02:41:07;;;;;;;165.60;37.92;;;7.90;99.90;;;;;;5112982;28;20386;-68
2021/11/12 02:43:34;;;;;;;190.27;41.55;;;7.90;99.90;;;;;;5113532;28;20072;-67
2021/11/12 02:46:02;;;;;;;226.48;48.13;;;8.00;99.90;;;;;;5113505;28;20050;-67
2021/11/12 02:48:36;;;;;;;233.18;45.67;;;8.00;99.90;;;;;;5095130;28;20028;-67
2021/11/12 02:51:04;;;;;;;342.95;53.92;;;8.00;99.90;;;;;;5113573;28;20028;-67
2021/11/12 02:53:29;;;;;;;264.92;55.25;;;8.10;99.90;;;;;;5112840;28;20028;-67
2021/11/12 02:56:01;;;;;;;407.10;62.53;;;8.10;99.90;;;;;;5095200;28;20145;-67
2021/11/12 02:58:26;;;;;;;321.15;61.75;;;8.20;99.90;;;;;;5113603;28;20035;-67
2021/11/12 03:00:52;;;;;;;289.15;59.65;;;8.20;99.90;;;;;;5112965;28;20027;-68
2021/11/12 03:03:18;;;;;;;424.80;65.47;;;8.20;99.90;;;;;;5113569;28;20015;-67
2021/11/12 03:05:44;;;;;;;285.98;63.58;;;8.30;99.90;;;;;;5113313;28;20020;-67
2021/11/12 03:08:09;;;;;;;223.18;58.55;;;8.30;99.90;;;;;;5113270;28;20035;-67
2021/11/12 03:10:35;;;;;;;393.25;66.43;;;8.30;99.90;;;;;;5116009;28;20027;-67
2021/11/12 03:13:01;;;;;;;378.83;68.13;;;8.30;99.90;;;;;;5116626;28;20475;-68
2021/11/12 03:15:26;;;;;;;391.25;75.35;;;8.40;99.90;;;;;;5117201;28;20089;-67
2021/11/12 03:17:55;;;;;;;442.20;75.15;;;8.40;99.90;;;;;;5116977;28;20371;-67
2021/11/12 03:20:22;;;;;;;476.30;77.68;;;8.40;99.90;;;;;;5117262;28;20032;-67
2021/11/12 03:22:55;;;;;;;530.72;81.13;;;8.50;99.90;;;;;;5117209;28;20026;-68
2021/11/12 03:25:31;;;;;;;469.13;79.10;;;8.50;99.90;;;;;;5116713;28;20023;-67
2021/11/12 03:28:10;;;;;;;417.73;81.82;;;8.60;99.90;;;;;;5117270;28;20103;-67
2021/11/12 03:31:11;;;;;;;520.13;84.32;;;8.60;99.90;;;;;;5116878;28;20067;-67
2021/11/12 03:49:50;;;;;;;;;;;8.70;99.90;;;;;;5117001;28;20502;-67
2021/11/12 04:30:57;;;;;;;;;;;8.90;99.90;;;;;;5116154;28;20142;-67
2021/11/12 05:09:43;;;;;;;312.38;75.85;;;8.90;99.90;;;;;;5114555;28;20027;-67
2021/11/12 05:44:08;;;;;;;;;;;8.90;99.90;;;;;;5114784;28;20046;-67
2021/11/12 05:57:16;;;;;;;320.25;69.70;;;8.90;99.90;;;;;;5114527;28;20030;-67
2021/11/12 05:59:43;;;;;;;314.88;69.47;;;8.90;99.90;;;;;;5114011;28;20480;-67
2021/11/12 06:02:09;;;;;;;298.17;66.13;;;9.00;99.90;;;;;;5113999;28;20023;-67
2021/11/12 06:04:35;;;;;;;324.15;68.93;;;9.00;99.90;;;;;;5114228;28;20020;-67
2021/11/12 06:07:00;;;;;;;320.42;68.55;;;9.00;99.90;;;;;;5113356;28;20059;-67
2021/11/12 06:09:27;;;;;;;270.55;67.13;;;9.00;99.90;;;;;;5113911;28;20023;-67
2021/11/12 06:11:53;;;;;;;283.58;65.63;;;9.00;99.90;;;;;;5113781;28;20076;-67
2021/11/12 06:14:20;;;;;;;279.60;66.22;;;9.10;99.90;;;;;;5113350;28;20030;-67
2021/11/12 06:16:46;;;;;;;278.90;65.97;;;9.10;99.90;;;;;;5113732;28;20019;-67
2021/11/12 06:19:12;;;;;;;283.40;68.88;;;9.10;99.90;;;;;;5113702;28;20133;-67
2021/11/12 06:21:38;;;;;;;295.23;66.32;;;9.20;99.90;;;;;;5113727;28;20058;-67
2021/11/12 06:24:04;;;;;;;304.33;68.85;;;9.20;99.90;;;;;;5095456;28;20024;-67
2021/11/12 06:26:30;;;;;;;260.65;64.70;;;9.10;99.90;;;;;;5113677;28;20555;-67
2021/11/12 06:28:58;;;;;;;264.83;63.45;;;9.10;99.90;;;;;;5113141;28;20051;-67
2021/11/12 06:31:24;;;;;;;271.48;62.33;;;9.20;99.90;;;;;;5113512;28;20546;-67
2021/11/12 06:33:51;;;;;;;265.77;60.85;;;9.10;99.90;;;;;;5113710;28;20070;-67
2021/11/12 06:36:18;;;;;;;250.32;59.25;;;9.20;99.90;;;;;;5113568;28;20028;-67
2021/11/12 06:38:44;;;;;;;242.25;58.35;;;9.20;99.90;;;;;;5095989;28;20019;-67
2021/11/12 06:41:13;;;;;;;245.40;57.38;;;9.20;99.90;;;;;;5113194;28;20424;-68
2021/11/12 06:51:35;;;;;;;;;;;9.20;99.90;;;;;;5117545;28;20034;-67
2021/11/12 06:54:00;;;;;;;210.50;52.97;;;9.20;99.90;;;;;;5117629;28;19904;-67
2021/11/12 06:56:26;;;;;;;281.35;61.15;;;9.20;99.90;;;;;;5117455;28;20076;-67
2021/11/12 06:58:52;;;;;;;260.80;60.25;;;9.20;99.90;;;;;;5117735;28;20091;-67
2021/11/12 07:01:18;;;;;;;241.02;53.80;;;9.20;99.90;;;;;;5116866;28;20026;-67
2021/11/12 07:03:45;;;;;;;264.70;61.42;;;9.20;99.90;;;;;;5117399;28;20019;-67
2021/11/12 07:06:11;;;;;;;274.35;62.58;;;9.30;99.90;;;;;;5117626;28;20419;-67
2021/11/12 07:08:37;;;;;;;286.58;64.15;;;9.20;99.90;;;;;;5117300;28;20038;-67
2021/11/12 07:11:02;;;;;;;296.40;63.38;;;9.30;99.90;;;;;;5116876;28;20092;-67
2021/11/12 07:13:29;;;;;;;336.88;66.85;;;9.30;99.90;;;;;;5117252;28;20421;-67
2021/11/12 07:15:56;;;;;;;331.50;69.15;;;9.30;99.90;;;;;;5117499;28;20110;-67
2021/11/12 07:18:24;;;;;;;331.08;72.40;;;9.30;99.90;;;;;;5117137;28;20030;-68
2021/11/12 07:20:51;;;;;;;327.17;70.00;;;9.40;99.90;;;;;;5117290;28;20034;-67
2021/11/12 07:23:19;;;;;;;378.88;73.55;;;9.40;99.90;;;;;;5116726;28;20042;-67
2021/11/12 07:25:46;;;;;;;405.25;74.78;;;9.30;99.90;;;;;;5117023;28;20099;-67
2021/11/12 07:28:12;;;;;;;357.20;73.85;;;9.30;99.90;;;;;;5117217;28;20039;-67
2021/11/12 07:33:07;;;;;;;332.15;67.97;;;9.30;99.90;;;;;;5137200;22;20114;-66
2021/11/12 07:35:47;;;;;;;345.80;70.18;;;9.30;99.90;;;;;;5116465;28;20108;-66
2021/11/12 07:38:18;;;;;;;300.02;62.15;;;9.30;99.90;;;;;;5098096;28;20030;-66
2021/11/12 07:48:38;;;;;;;366.38;67.80;;;9.30;99.90;;;;;;5117164;28;20482;-66
2021/11/12 07:51:04;;;;;;;313.65;64.53;;;9.30;99.90;;;;;;5116453;28;20035;-66
2021/11/12 07:53:30;;;;;;;390.02;73.35;;;9.40;99.90;;;;;;5116481;28;20023;-66
2021/11/12 07:55:56;;;;;;;407.15;80.15;;;9.30;99.90;;;;;;5115231;28;20055;-66
2021/11/12 07:58:22;;;;;;;399.27;75.20;;;9.30;99.90;;;;;;5116250;28;20034;-66
2021/11/12 08:00:48;;;;;;;409.13;76.38;;;9.30;99.90;;;;;;5116492;28;20023;-65
2021/11/12 08:03:15;;;;;;;370.58;73.90;;;9.30;99.90;;;;;;5115817;28;20023;-65
2021/11/12 08:05:44;;;;;;;383.92;75.80;;;9.30;99.90;;;;;;5116264;28;20108;-66
2021/11/12 08:08:13;;;;;;;374.58;72.85;;;9.30;99.90;;;;;;5116460;28;20028;-66
2021/11/12 08:10:49;;;;;;;397.80;74.80;;;9.30;99.90;;;;;;5116389;28;20094;-66
2021/11/12 08:16:04;;;;;;;437.73;80.72;;;9.30;99.90;;;;;;5116359;28;20034;-66
2021/11/12 08:26:16;;;;;;;436.50;81.93;;;9.30;99.90;;;;;;5115878;28;20026;-66
2021/11/12 08:31:44;;;;;;;486.23;88.72;;;9.30;99.90;;;;;;5115784;28;20077;-66
2021/11/12 08:34:05;;;;;;;457.77;85.82;;;9.30;99.90;;;;;;5112167;28;20510;-66
2021/11/12 08:36:44;;;;;;;424.23;82.72;;;9.30;99.90;;;;;;5115842;28;20402;-66
2021/11/12 08:41:52;;;;;;;464.70;86.18;;;9.30;99.90;;;;;;5115228;28;20531;-66
2021/11/12 08:44:26;;;;;;;411.35;79.90;;;9.30;99.90;;;;;;5115470;28;20027;-66
2021/11/12 08:46:54;;;;;;;511.02;89.00;;;9.40;99.90;;;;;;5115237;28;20024;-66
2021/11/12 08:49:32;;;;;;;475.70;86.32;;;9.30;99.90;;;;;;5115642;28;20039;-66
2021/11/12 08:51:59;;;;;;;399.35;77.85;;;9.40;99.90;;;;;;5115004;28;20081;-66
2021/11/12 08:54:29;;;;;;;433.15;86.80;;;9.40;99.90;;;;;;5115550;28;20035;-66
2021/11/12 08:56:55;;;;;;;501.67;93.05;;;9.40;99.90;;;;;;5115086;28;20028;-66
2021/11/12 08:59:21;;;;;;;468.52;88.32;;;9.40;99.90;;;;;;5115174;28;20144;-66
2021/11/12 09:01:47;;;;;;;451.73;88.40;;;9.40;99.90;;;;;;5115077;28;20016;-66
2021/11/12 09:04:14;;;;;;;509.00;94.07;;;9.40;99.90;;;;;;5114575;28;20500;-66
2021/11/12 09:06:40;;;;;;;462.48;90.53;;;9.40;99.90;;;;;;5114584;28;20039;-66
2021/11/12 09:09:06;;;;;;;455.00;90.85;;;9.40;99.90;;;;;;5114797;28;20059;-66
2021/11/12 09:11:32;;;;;;;484.33;93.63;;;9.50;99.90;;;;;;5114850;28;20058;-66
2021/11/12 09:14:02;;;;;;;433.95;86.13;;;9.50;99.90;;;;;;5115172;28;20428;-66
2021/11/12 09:16:34;;;;;;;479.30;91.57;;;9.50;99.90;;;;;;5114451;28;20035;-66
2021/11/12 09:19:00;;;;;;;478.65;93.28;;;9.50;99.90;;;;;;5115109;28;20047;-66
2021/11/12 09:21:28;;;;;;;463.75;87.93;;;9.50;99.90;;;;;;5114965;28;20050;-66
2021/11/12 09:23:56;;;;;;;462.17;88.07;;;9.50;99.90;;;;;;5114858;28;20107;-66
2021/11/12 09:26:23;;;;;;;450.15;87.97;;;9.40;99.90;;;;;;5114413;28;20027;-66
2021/11/12 09:28:49;;;;;;;425.05;84.07;;;9.40;99.90;;;;;;5114828;28;20027;-66
2021/11/12 09:31:16;;;;;;;449.23;86.47;;;9.40;99.90;;;;;;5114618;28;20035;-68
2021/11/12 09:33:42;;;;;;;420.50;81.82;;;9.40;99.90;;;;;;5114282;28;20067;-67
2021/11/12 09:36:09;;;;;;;438.20;83.55;;;9.40;99.90;;;;;;5114799;28;20088;-66
2021/11/12 09:38:39;;;;;;;400.50;83.35;;;9.40;99.90;;;;;;5114561;28;20047;-66
2021/11/12 09:41:06;;;;;;;429.88;82.78;;;9.50;99.90;;;;;;5114594;28;20045;-66
2021/11/12 09:43:32;;;;;;;436.65;83.00;;;9.50;99.90;;;;;;5114007;28;20478;-66
2021/11/12 09:45:59;;;;;;;406.38;82.63;;;9.40;99.90;;;;;;5114543;28;20031;-66
2021/11/12 09:48:24;;;;;;;386.85;84.93;;;9.40;99.90;;;;;;5114268;28;20102;-66
2021/11/12 09:50:51;;;;;;;399.45;81.53;;;9.40;99.90;;;;;;5114187;28;20450;-66
2021/11/12 09:53:18;;;;;;;375.70;79.25;;;9.40;99.90;;;;;;5114134;28;20057;-66
2021/11/12 09:55:45;;;;;;;357.30;76.57;;;9.50;99.90;;;;;;5113815;28;20027;-66
2021/11/12 09:58:11;;;;;;;392.02;82.15;;;9.50;99.90;;;;;;5114036;28;20106;-66
2021/11/12 10:00:39;;;;;;;333.65;74.43;;;9.50;99.90;;;;;;5113960;28;20102;-66
2021/11/12 10:03:07;;;;;;;380.73;82.18;;;9.50;99.90;;;;;;5113852;28;20024;-66
2021/11/12 10:05:44;;;;;;;363.77;77.63;;;9.50;99.90;;;;;;5114240;28;20135;-66
2021/11/12 10:08:37;;;;;;;372.13;79.43;;;9.50;99.90;;;;;;5114124;28;20073;-66
2021/11/12 10:11:09;;;;;;;345.38;78.18;;;9.60;99.90;;;;;;5114122;28;20502;-66
2021/11/12 10:13:45;;;;;;;378.27;76.50;;;9.60;99.90;;;;;;5114184;28;20039;-66
2021/11/12 10:19:11;;;;;;;385.20;76.97;;;9.60;99.90;;;;;;5113522;28;20386;-66
2021/11/12 10:21:43;;;;;;;337.60;72.68;;;9.60;99.90;;;;;;5113406;28;20020;-66
2021/11/12 10:24:16;;;;;;;329.90;71.82;;;9.60;99.90;;;;;;5114334;28;20019;-66
2021/11/12 10:26:49;;;;;;;359.92;74.15;;;9.70;99.90;;;;;;5113952;28;20039;-66
2021/11/12 10:29:22;;;;;;;304.42;66.03;;;9.70;99.90;;;;;;5113134;28;20494;-66
2021/11/12 10:31:51;;;;;;;368.90;74.13;;;9.70;99.90;;;;;;5113619;28;20042;-66
2021/11/12 10:34:22;;;;;;;297.88;65.32;;;9.70;99.90;;;;;;5113731;28;20044;-66
2021/11/12 10:36:55;;;;;;;325.33;71.30;;;9.70;99.90;;;;;;5113518;28;20054;-66
2021/11/12 10:39:33;;;;;;;342.42;72.55;;;9.60;99.90;;;;;;5113390;28;20479;-66
2021/11/12 10:42:01;;;;;;;351.00;76.95;;;9.50;99.90;;;;;;5113467;28;20028;-66
2021/11/12 10:44:28;;;;;;;322.45;73.30;;;9.50;99.90;;;;;;5113493;28;20356;-66
2021/11/12 10:46:54;;;;;;;302.38;68.35;;;9.50;99.90;;;;;;5113805;28;20136;-66
2021/11/12 10:49:24;;;;;;;321.33;73.93;;;9.60;99.90;;;;;;5113720;28;20045;-66
2021/11/12 10:51:53;;;;;;;328.83;74.53;;;9.60;99.90;;;;;;5112986;28;20479;-66
2021/11/12 10:54:40;;;;;;;343.27;79.53;;;9.60;99.90;;;;;;5113693;28;20054;-66
2021/11/12 10:57:07;;;;;;;356.85;79.18;;;9.70;99.90;;;;;;5113356;28;20051;-66
2021/11/12 10:59:50;;;;;;;291.30;73.32;;;9.70;99.90;;;;;;5113382;28;20012;-66
2021/11/12 11:02:22;;;;;;;344.90;79.63;;;9.70;99.90;;;;;;5112756;28;20024;-66
2021/11/12 11:04:47;;;;;;;314.50;75.22;;;9.70;99.90;;;;;;5113333;28;20501;-66
2021/11/12 11:07:23;;;;;;;325.90;79.63;;;9.70;99.90;;;;;;5113517;28;20035;-66
2021/11/12 11:09:50;;;;;;;347.38;81.47;;;9.70;99.90;;;;;;5112760;28;20030;-66
2021/11/12 11:12:43;;;;;;;301.20;76.07;;;9.70;99.90;;;;;;5113201;28;20089;-66
2021/11/12 11:15:31;;;;;;;340.00;78.10;;;9.70;99.90;;;;;;5106725;28;20483;-66
2021/11/12 11:18:07;;;;;;;366.73;78.30;;;9.60;99.90;;;;;;5103663;28;20047;-66
2021/11/12 11:20:34;;;;;;;320.73;72.93;;;9.60;99.90;;;;;;5100928;28;20027;-66
2021/11/12 11:23:01;;;;;;;333.10;73.90;;;9.60;99.90;;;;;;5103488;28;20024;-66
2021/11/12 11:25:28;;;;;;;319.60;71.43;;;9.50;99.90;;;;;;5101536;28;20165;-66
2021/11/12 11:27:57;;;;;;;310.70;72.80;;;9.50;99.90;;;;;;5098841;28;20029;-66
2021/11/12 11:30:23;;;;;;;306.98;67.22;;;9.50;99.90;;;;;;5101557;28;20027;-66
2021/11/12 11:32:49;;;;;;;289.35;68.85;;;9.50;99.90;;;;;;5105239;28;20032;-66
2021/11/12 11:35:17;;;;;;;221.60;57.75;;;9.50;99.90;;;;;;5107698;28;20032;-66
2021/11/12 11:37:44;;;;;;;235.27;57.05;;;9.50;99.90;;;;;;5106825;28;20503;-66
2021/11/12 11:40:13;;;;;;;231.32;59.10;;;9.50;99.90;;;;;;5102529;28;20085;-66
2021/11/12 11:42:44;;;;;;;215.63;55.75;;;9.50;99.90;;;;;;5102272;28;20012;-66
2021/11/12 11:45:12;;;;;;;203.98;55.08;;;9.50;99.90;;;;;;5105011;28;20016;-66
2021/11/12 11:47:41;;;;;;;197.75;55.45;;;9.50;99.90;;;;;;5105268;28;20028;-66
2021/11/12 11:50:27;;;;;;;168.05;47.90;;;9.50;99.90;;;;;;5104559;28;20028;-66
2021/11/12 11:52:53;;;;;;;154.88;48.42;;;9.50;99.90;;;;;;5107016;28;20102;-66
2021/11/12 11:55:37;;;;;;;148.07;47.13;;;9.40;99.90;;;;;;5103062;28;20465;-66
2021/11/12 11:58:37;;;;;;;137.82;45.78;;;9.40;99.90;;;;;;5102117;28;20034;-66
2021/11/12 12:01:25;;;;;;;145.65;45.45;;;9.50;99.90;;;;;;5101707;28;20028;-66
2021/11/12 12:04:09;;;;;;;126.90;45.50;;;9.50;99.90;;;;;;5101630;28;20031;-66
2021/11/12 12:06:37;;;;;;;118.43;40.65;;;9.50;99.90;;;;;;5103443;28;20061;-66
2021/11/12 12:09:11;;;;;;;119.00;41.60;;;9.50;99.90;;;;;;5106244;28;20024;-66
2021/11/12 12:11:54;;;;;;;104.78;39.40;;;9.50;99.90;;;;;;5106372;28;20073;-66
2021/11/12 12:14:29;;;;;;;109.80;38.55;;;9.60;99.90;;;;;;5104682;28;20028;-66
2021/11/12 12:17:10;;;;;;;106.13;37.40;;;9.40;99.90;;;;;;5105039;28;20073;-66
2021/11/12 12:19:42;;;;;;;97.35;37.05;;;9.40;99.90;;;;;;5106914;28;20069;-66
2021/11/12 13:25:45;;;;;;;88.90;41.20;;;9.00;99.90;;;;;;5094560;28;20036;-66
2021/11/12 13:28:26;;;;;;;89.00;41.90;;;9.00;99.90;;;;;;5093697;28;20024;-66
2021/11/12 13:31:02;;;;;;;82.10;39.55;;;9.00;99.90;;;;;;5094190;28;20035;-66
2021/11/12 13:33:48;;;;;;;87.70;40.20;;;9.00;99.90;;;;;;5098910;28;20039;-66
2021/11/12 13:36:30;;;;;;;85.47;38.47;;;9.00;99.90;;;;;;5105233;28;20499;-66
2021/11/12 13:38:57;;;;;;;71.85;35.38;;;9.00;99.90;;;;;;5093978;28;20043;-66
2021/11/12 13:41:27;;;;;;;70.97;34.92;;;9.00;99.90;;;;;;5094165;28;20127;-66
2021/11/12 13:43:59;;;;;;;61.38;33.50;;;9.00;99.90;;;;;;5094205;28;20028;-66
2021/11/12 13:46:25;;;;;;;66.70;31.50;;;8.90;99.90;;;;;;5094188;28;20031;-66
2021/11/12 13:48:53;;;;;;;55.65;31.73;;;9.00;99.90;;;;;;5094154;28;20020;-66
2021/11/12 13:51:28;;;;;;;50.70;30.13;;;9.00;99.90;;;;;;5093501;28;20107;-66
2021/11/12 13:53:54;;;;;;;52.70;30.70;;;9.00;99.90;;;;;;5093564;28;20089;-66
2021/11/12 13:56:20;;;;;;;47.78;28.67;;;9.00;99.90;;;;;;5093777;28;20031;-66
2021/11/12 13:58:46;;;;;;;47.22;27.10;;;9.00;99.90;;;;;;5093975;28;20028;-66
2021/11/12 14:01:23;;;;;;;47.92;27.90;;;8.90;99.90;;;;;;5093860;28;20028;-66
2021/11/12 14:03:51;;;;;;;47.33;26.83;;;8.90;99.90;;;;;;5093343;28;20395;-66
2021/11/12 14:06:19;;;;;;;36.10;21.73;;;8.90;99.90;;;;;;5093849;28;20020;-66
2021/11/12 14:08:48;;;;;;;36.22;24.30;;;8.80;99.90;;;;;;5093483;28;20402;-66
2021/11/12 14:11:22;;;;;;;35.17;22.90;;;8.80;99.90;;;;;;5093699;28;20035;-67
2021/11/12 14:13:49;;;;;;;33.67;22.23;;;8.80;99.90;;;;;;5093186;28;20482;-67
2021/11/12 14:16:25;;;;;;;38.17;19.73;;;8.80;99.90;;;;;;5093960;28;20190;-67
2021/11/12 14:19:44;;;;;;;23.00;16.40;;;8.70;99.90;;;;;;5093505;28;20077;-67
2021/11/12 14:23:06;;;;;;;26.40;16.35;;;8.60;99.90;;;;;;5093671;28;20016;-67
2021/11/12 14:25:33;;;;;;;26.10;17.23;;;8.60;99.90;;;;;;5085070;28;20054;-67
2021/11/12 14:28:29;;;;;;;24.92;17.05;;;8.50;99.90;;;;;;5093416;28;20036;-66
2021/11/12 14:45:06;;;;;;;24.05;16.40;;;8.50;99.90;;;;;;5093653;28;20110;-67
2021/11/12 14:47:41;;;;;;;23.38;16.73;;;8.50;99.90;;;;;;5093001;28;20020;-66
2021/11/12 14:50:26;;;;;;;23.88;18.08;;;8.50;99.90;;;;;;5093601;28;20019;-66
2021/11/12 14:53:34;;;;;;;28.35;20.00;;;8.50;99.90;;;;;;5093318;28;20395;-66
2021/11/12 14:58:41;;;;;;;26.92;20.20;;;8.40;99.90;;;;;;5093213;28;20038;-66
2021/11/12 15:01:09;;;;;;;33.70;19.80;;;8.40;99.90;;;;;;5093266;28;20031;-66
2021/11/12 15:03:36;;;;;;;29.10;20.05;;;8.40;99.90;;;;;;5093007;28;20419;-66
2021/11/12 15:06:02;;;;;;;28.88;19.80;;;8.40;99.90;;;;;;5095282;28;20020;-66
2021/11/12 15:08:29;;;;;;;26.00;19.33;;;8.40;99.90;;;;;;5097506;28;20024;-66
2021/11/12 15:10:56;;;;;;;28.83;19.90;;;8.40;99.90;;;;;;5097387;28;20032;-66
2021/11/12 15:13:22;;;;;;;29.58;19.88;;;8.40;99.90;;;;;;5096846;28;20016;-66
2021/11/12 15:15:48;;;;;;;27.73;19.52;;;8.30;99.90;;;;;;5097008;28;20441;-66
2021/11/12 15:18:17;;;;;;;24.10;18.15;;;8.30;99.90;;;;;;5097197;28;20035;-66
2021/11/12 15:20:42;;;;;;;30.13;19.30;;;8.20;99.90;;;;;;5097167;28;20028;-66
2021/11/12 15:26:06;;;;;;;27.77;20.23;;;8.00;99.90;;;;;;5097155;28;20024;-68
2021/11/12 15:28:50;;;;;;;33.65;22.15;;;8.00;99.90;;;;;;5101090;28;20024;-67
2021/11/12 15:33:49;;;;;;;29.05;21.10;;;7.90;99.90;;;;;;5106037;28;20062;-67
2021/11/12 15:36:16;;;;;;;32.38;20.45;;;7.80;99.90;;;;;;5106192;28;20031;-67
2021/11/12 15:38:51;;;;;;;32.42;21.25;;;7.90;99.90;;;;;;5107534;28;20503;-67
2021/11/12 15:43:58;;;;;;;31.95;20.17;;;7.80;99.90;;;;;;5097184;28;20533;-66
2021/11/12 15:46:26;;;;;;;30.05;20.85;;;7.80;99.90;;;;;;5096465;28;20081;-66
2021/11/12 15:48:52;;;;;;;31.27;21.38;;;7.70;99.90;;;;;;5096190;28;20452;-66
2021/11/12 15:51:30;;;;;;;33.38;19.92;;;7.80;99.90;;;;;;5095790;28;20111;-66
2021/11/12 15:56:57;;;;;;;32.65;21.25;;;7.70;99.90;;;;;;5096388;28;20036;-66
2021/11/12 16:08:49;;;;;;;30.17;21.02;;;7.80;99.90;;;;;;5071537;28;20046;-66
2021/11/12 16:11:14;;;;;;;32.55;20.98;;;7.90;99.90;;;;;;5088023;28;20040;-66
2021/11/12 16:13:46;;;;;;;30.77;20.77;;;7.90;99.90;;;;;;5095863;28;20364;-66
2021/11/12 16:27:00;;;;;;;37.05;20.35;;;8.20;99.90;;;;;;5095576;28;20023;-66
2021/11/12 16:29:35;;;;;;;33.38;20.85;;;8.20;99.90;;;;;;5095717;28;20399;-66
2021/11/12 16:32:04;;;;;;;36.95;21.58;;;8.30;99.90;;;;;;5095325;28;20024;-66
2021/11/12 16:34:35;;;;;;;35.30;21.80;;;8.30;99.90;;;;;;5095002;28;20024;-66
2021/11/12 16:37:02;;;;;;;32.13;20.25;;;8.30;99.90;;;;;;5095556;28;20077;-66
2021/11/12 16:39:39;;;;;;;32.97;19.92;;;8.30;99.90;;;;;;5095490;28;20028;-66
2021/11/12 16:52:49;;;;;;;40.88;22.10;;;8.30;99.90;;;;;;5095247;28;20024;-66
2021/11/12 16:55:12;;;;;;;32.38;20.27;;;8.30;99.90;;;;;;5086584;28;20089;-66
2021/11/12 17:01:29;;;;;;;37.70;21.65;;;8.30;99.90;;;;;;5094835;28;20047;-66
2021/11/12 17:08:05;;;;;;;37.00;21.83;;;8.20;99.90;;;;;;5105932;28;20028;-67
2021/11/12 17:10:45;;;;;;;36.15;21.77;;;8.20;99.90;;;;;;5105279;28;20058;-66
2021/11/12 17:16:05;;;;;;;38.85;21.08;;;8.00;99.90;;;;;;5101044;28;20066;-66
2021/11/12 17:47:42;;;;;;;36.83;20.33;;;8.10;99.90;;;;;;5102845;28;20020;-68
2021/11/12 17:50:26;;;;;;;35.67;22.40;;;8.10;99.90;;;;;;5104686;28;20020;-67
2021/11/12 17:53:13;;;;;;;39.50;21.85;;;8.00;99.90;;;;;;5104978;28;20043;-67
2021/11/12 18:06:22;;;;;;;29.23;19.67;;;7.90;99.90;;;;;;5101728;28;20383;-67
2021/11/12 18:09:29;;;;;;;35.40;21.10;;;7.80;99.90;;;;;;5102544;28;20451;-67
2021/11/12 21:48:34;;;;;;;82.70;43.65;;;6.40;99.90;;;;;;5102903;28;20081;-65
2021/11/12 21:51:03;;;;;;;76.88;45.17;;;6.40;99.90;;;;;;5102558;28;20450;-66
2021/11/12 21:53:29;;;;;;;76.20;44.80;;;6.40;99.90;;;;;;5107172;28;20527;-65
2021/11/12 21:55:56;;;;;;;83.57;45.58;;;6.40;99.90;;;;;;5100049;28;20410;-66
2021/11/12 21:58:24;;;;;;;92.50;47.08;;;6.30;99.90;;;;;;5100364;28;20080;-65
2021/11/12 22:00:51;;;;;;;80.82;44.22;;;6.30;99.90;;;;;;5102342;28;20016;-66
2021/11/12 22:03:17;;;;;;;73.20;45.35;;;6.20;99.90;;;;;;5102328;28;20101;-66
2021/11/12 22:05:43;;;;;;;84.22;46.45;;;6.20;99.90;;;;;;5105095;28;20028;-65
2021/11/12 22:08:09;;;;;;;88.47;47.45;;;6.20;99.90;;;;;;5102078;28;20031;-66
2021/11/12 22:10:36;;;;;;;86.15;46.95;;;6.20;99.90;;;;;;5098925;28;20036;-65
2021/11/12 22:13:02;;;;;;;95.05;48.28;;;6.20;99.90;;;;;;5103038;28;20031;-66
2021/11/12 22:15:28;;;;;;;84.28;46.60;;;6.10;99.90;;;;;;5101915;28;20036;-66
2021/11/12 22:17:54;;;;;;;94.03;53.22;;;6.20;99.90;;;;;;5104144;28;20066;-66
2021/11/12 22:20:21;;;;;;;92.22;46.90;;;6.10;99.90;;;;;;5103604;28;20023;-67
2021/11/12 22:22:48;;;;;;;93.35;47.60;;;6.10;99.90;;;;;;5099510;28;20479;-67
2021/11/12 22:25:15;;;;;;;95.25;48.33;;;6.10;99.90;;;;;;5100423;28;20089;-68
2021/11/12 22:27:40;;;;;;;86.60;48.17;;;6.10;99.90;;;;;;5102581;28;20032;-67
2021/11/12 22:30:08;;;;;;;93.53;47.20;;;6.10;99.90;;;;;;5104196;28;20463;-67